sensor_id;sensor_type;location;lat;lon;timestamp;temperature;humidity
38582;DHT22;24349;53.720;10.014;2023-09-12T00:00:58;21.30;99.90
38582;DHT22;24349;53.720;10.014;2023-09-12T00:03:30;21.30;99.90
38582;DHT22;24349;53.720;10.014;2023-09-12T00:05:57;21.30;99.90
38582;DHT22;24349;53.720;10.014;2023-09-12T00:08:23;21.10;99.90
38582;DHT22;24349;53.720;10.014;2023-09-12T00:11:07;21.10;99.90
38582;DHT22;24349;53.720;10.014;2023-09-12T00:13:35;21.10;99.90
38582;DHT22;24349;53.720;10.014;2023-09-12T00:16:01;21.00;99.90
38582;DHT22;24349;53.720;10.014;2023-09-12T00:18:27;21.00;99.90
38582;DHT22;24349;53.720;10.014;2023-09-12T00:20:53;20.90;99.90
38582;DHT22;24349;53.720;10.014;2023-09-12T00:23:20;20.80;99.90
38582;DHT22;24349;53.720;10.014;2023-09-12T00:25:45;20.70;99.90
38582;DHT22;24349;53.720;10.014;2023-09-12T00:28:11;20.60;99.90
38582;DHT22;24349;53.720;10.014;2023-09-12T00:30:37;20.60;99.90
38582;DHT22;24349;53.720;10.014;2023-09-12T00:33:02;20.70;99.90
38582;DHT22;24349;53.720;10.014;2023-09-12T00:35:28;20.80;99.90
38582;DHT22;24349;53.720;10.014;2023-09-12T00:37:54;20.80;99.90
38582;DHT22;24349;53.720;10.014;2023-09-12T00:40:19;20.80;99.90
38582;DHT22;24349;53.720;10.014;2023-09-12T00:42:45;20.80;99.90
38582;DHT22;24349;53.720;10.014;2023-09-12T00:45:10;20.90;99.90
38582;DHT22;24349;53.720;10.014;2023-09-12T00:47:36;20.90;99.90
38582;DHT22;24349;53.720;10.014;2023-09-12T00:50:02;20.90;99.90
38582;DHT22;24349;53.720;10.014;2023-09-12T00:52:31;20.90;99.90
38582;DHT22;24349;53.720;10.014;2023-09-12T00:54:57;20.80;99.90
38582;DHT22;24349;53.720;10.014;2023-09-12T00:57:23;20.90;99.90
38582;DHT22;24349;53.720;10.014;2023-09-12T00:59:51;20.80;99.90
38582;DHT22;24349;53.720;10.014;2023-09-12T01:02:18;20.80;99.90
38582;DHT22;24349;53.720;10.014;2023-09-12T01:04:45;20.80;99.90
38582;DHT22;24349;53.720;10.014;2023-09-12T01:07:11;20.80;99.90
38582;DHT22;24349;53.720;10.014;2023-09-12T01:09:36;20.80;99.90
38582;DHT22;24349;53.720;10.014;2023-09-12T01:12:02;20.60;99.90
38582;DHT22;24349;53.720;10.014;2023-09-12T01:14:29;20.50;99.90
38582;DHT22;24349;53.720;10.014;2023-09-12T01:16:55;20.50;99.90
38582;DHT22;24349;53.720;10.014;2023-09-12T01:19:21;20.60;99.90
38582;DHT22;24349;53.720;10.014;2023-09-12T01:27:42;20.60;99.90
38582;DHT22;24349;53.720;10.014;2023-09-12T01:30:09;20.60;99.90
38582;DHT22;24349;53.720;10.014;2023-09-12T01:32:35;20.60;99.90
38582;DHT22;24349;53.720;10.014;2023-09-12T01:35:02;20.60;99.90
38582;DHT22;24349;53.720;10.014;2023-09-12T01:37:31;20.50;99.90
38582;DHT22;24349;53.720;10.014;2023-09-12T01:39:57;20.50;99.90
38582;DHT22;24349;53.720;10.014;2023-09-12T01:42:23;20.50;99.90
38582;DHT22;24349;53.720;10.014;2023-09-12T01:44:55;20.50;99.90
38582;DHT22;24349;53.720;10.014;2023-09-12T01:47:20;20.50;99.90
38582;DHT22;24349;53.720;10.014;2023-09-12T01:49:51;20.50;99.90
38582;DHT22;24349;53.720;10.014;2023-09-12T01:52:18;20.40;99.90
38582;DHT22;24349;53.720;10.014;2023-09-12T01:54:45;20.30;99.90
38582;DHT22;24349;53.720;10.014;2023-09-12T01:57:12;20.10;99.90
38582;DHT22;24349;53.720;10.014;2023-09-12T01:59:39;20.10;99.90
38582;DHT22;24349;53.720;10.014;2023-09-12T02:02:04;20.20;99.90
38582;DHT22;24349;53.720;10.014;2023-09-12T02:04:30;20.30;99.90
38582;DHT22;24349;53.720;10.014;2023-09-12T02:06:56;20.40;99.90
38582;DHT22;24349;53.720;10.014;2023-09-12T02:09:23;20.40;99.90
38582;DHT22;24349;53.720;10.014;2023-09-12T02:11:50;20.50;99.90
38582;DHT22;24349;53.720;10.014;2023-09-12T02:14:15;20.60;99.90
38582;DHT22;24349;53.720;10.014;2023-09-12T02:16:43;20.60;99.90
38582;DHT22;24349;53.720;10.014;2023-09-12T02:19:09;20.60;99.90
38582;DHT22;24349;53.720;10.014;2023-09-12T02:21:34;20.60;99.90
38582;DHT22;24349;53.720;10.014;2023-09-12T02:24:00;20.60;99.90
38582;DHT22;24349;53.720;10.014;2023-09-12T02:26:25;20.60;99.90
38582;DHT22;24349;53.720;10.014;2023-09-12T02:28:51;20.60;99.90
38582;DHT22;24349;53.720;10.014;2023-09-12T02:31:16;20.70;99.90
38582;DHT22;24349;53.720;10.014;2023-09-12T02:33:42;20.70;99.90
38582;DHT22;24349;53.720;10.014;2023-09-12T02:36:08;20.60;99.90
38582;DHT22;24349;53.720;10.014;2023-09-12T02:38:34;20.60;99.90
38582;DHT22;24349;53.720;10.014;2023-09-12T02:40:59;20.60;99.90
38582;DHT22;24349;53.720;10.014;2023-09-12T02:43:25;20.60;99.90
38582;DHT22;24349;53.720;10.014;2023-09-12T02:45:50;20.70;99.90
38582;DHT22;24349;53.720;10.014;2023-09-12T02:48:16;20.70;99.90
38582;DHT22;24349;53.720;10.014;2023-09-12T02:50:42;20.70;99.90
38582;DHT22;24349;53.720;10.014;2023-09-12T02:53:07;20.60;99.90
38582;DHT22;24349;53.720;10.014;2023-09-12T02:55:33;20.60;99.90
38582;DHT22;24349;53.720;10.014;2023-09-12T02:57:58;20.60;99.90
38582;DHT22;24349;53.720;10.014;2023-09-12T03:00:24;20.70;99.90
38582;DHT22;24349;53.720;10.014;2023-09-12T03:02:50;20.70;99.90
38582;DHT22;24349;53.720;10.014;2023-09-12T03:05:15;20.70;99.90
38582;DHT22;24349;53.720;10.014;2023-09-12T03:07:41;20.70;99.90
38582;DHT22;24349;53.720;10.014;2023-09-12T03:10:07;20.50;99.90
38582;DHT22;24349;53.720;10.014;2023-09-12T03:12:33;20.40;99.90
38582;DHT22;24349;53.720;10.014;2023-09-12T03:15:00;20.40;99.90
38582;DHT22;24349;53.720;10.014;2023-09-12T03:17:28;20.30;99.90
38582;DHT22;24349;53.720;10.014;2023-09-12T03:19:53;20.10;99.90
38582;DHT22;24349;53.720;10.014;2023-09-12T03:22:19;20.00;99.90
38582;DHT22;24349;53.720;10.014;2023-09-12T03:24:45;20.00;99.90
38582;DHT22;24349;53.720;10.014;2023-09-12T03:27:10;20.10;99.90
38582;DHT22;24349;53.720;10.014;2023-09-12T03:29:36;20.10;99.90
38582;DHT22;24349;53.720;10.014;2023-09-12T03:32:02;20.00;99.90
38582;DHT22;24349;53.720;10.014;2023-09-12T03:34:27;20.00;99.90
38582;DHT22;24349;53.720;10.014;2023-09-12T03:36:53;20.00;99.90
38582;DHT22;24349;53.720;10.014;2023-09-12T03:39:19;20.10;99.90
38582;DHT22;24349;53.720;10.014;2023-09-12T03:41:44;20.20;99.90
38582;DHT22;24349;53.720;10.014;2023-09-12T03:44:10;20.20;99.90
38582;DHT22;24349;53.720;10.014;2023-09-12T03:46:35;20.30;99.90
38582;DHT22;24349;53.720;10.014;2023-09-12T03:49:01;20.30;99.90
38582;DHT22;24349;53.720;10.014;2023-09-12T03:51:26;20.20;99.90
38582;DHT22;24349;53.720;10.014;2023-09-12T03:53:52;20.10;99.90
38582;DHT22;24349;53.720;10.014;2023-09-12T03:56:18;20.10;99.90
38582;DHT22;24349;53.720;10.014;2023-09-12T03:58:45;20.10;99.90
38582;DHT22;24349;53.720;10.014;2023-09-12T04:01:11;20.10;99.90
38582;DHT22;24349;53.720;10.014;2023-09-12T04:03:36;20.20;99.90
38582;DHT22;24349;53.720;10.014;2023-09-12T04:06:02;20.10;99.90
38582;DHT22;24349;53.720;10.014;2023-09-12T04:08:28;20.20;99.90
38582;DHT22;24349;53.720;10.014;2023-09-12T04:10:53;20.20;99.90
38582;DHT22;24349;53.720;10.014;2023-09-12T04:13:19;20.20;99.90
38582;DHT22;24349;53.720;10.014;2023-09-12T04:15:45;20.10;99.90
38582;DHT22;24349;53.720;10.014;2023-09-12T04:18:10;20.00;99.90
38582;DHT22;24349;53.720;10.014;2023-09-12T04:20:36;20.00;99.90
38582;DHT22;24349;53.720;10.014;2023-09-12T04:23:02;19.90;99.90
38582;DHT22;24349;53.720;10.014;2023-09-12T04:25:28;19.90;99.90
38582;DHT22;24349;53.720;10.014;2023-09-12T04:27:54;19.90;99.90
38582;DHT22;24349;53.720;10.014;2023-09-12T04:30:20;20.00;99.90
38582;DHT22;24349;53.720;10.014;2023-09-12T04:32:45;20.10;99.90
38582;DHT22;24349;53.720;10.014;2023-09-12T04:35:11;20.10;99.90
38582;DHT22;24349;53.720;10.014;2023-09-12T04:37:37;20.20;99.90
38582;DHT22;24349;53.720;10.014;2023-09-12T04:40:03;20.30;99.90
38582;DHT22;24349;53.720;10.014;2023-09-12T04:42:31;20.30;99.90
38582;DHT22;24349;53.720;10.014;2023-09-12T04:44:57;20.30;99.90
38582;DHT22;24349;53.720;10.014;2023-09-12T04:47:22;20.30;99.90
38582;DHT22;24349;53.720;10.014;2023-09-12T04:49:48;20.20;99.90
38582;DHT22;24349;53.720;10.014;2023-09-12T04:52:14;20.10;99.90
38582;DHT22;24349;53.720;10.014;2023-09-12T04:54:40;20.00;99.90
38582;DHT22;24349;53.720;10.014;2023-09-12T04:57:05;19.90;99.90
38582;DHT22;24349;53.720;10.014;2023-09-12T04:59:31;19.90;99.90
38582;DHT22;24349;53.720;10.014;2023-09-12T05:01:57;19.90;99.90
38582;DHT22;24349;53.720;10.014;2023-09-12T05:04:22;19.80;99.90
38582;DHT22;24349;53.720;10.014;2023-09-12T05:06:48;19.70;99.90
38582;DHT22;24349;53.720;10.014;2023-09-12T05:09:14;19.80;99.90
38582;DHT22;24349;53.720;10.014;2023-09-12T05:11:39;19.90;99.90
38582;DHT22;24349;53.720;10.014;2023-09-12T05:14:05;19.90;99.90
38582;DHT22;24349;53.720;10.014;2023-09-12T05:16:31;20.00;99.90
38582;DHT22;24349;53.720;10.014;2023-09-12T05:18:56;19.80;99.90
38582;DHT22;24349;53.720;10.014;2023-09-12T05:21:22;19.70;99.90
38582;DHT22;24349;53.720;10.014;2023-09-12T05:23:48;19.60;99.90
38582;DHT22;24349;53.720;10.014;2023-09-12T05:26:13;19.70;99.90
38582;DHT22;24349;53.720;10.014;2023-09-12T05:28:39;19.70;99.90
38582;DHT22;24349;53.720;10.014;2023-09-12T05:31:05;19.80;99.90
38582;DHT22;24349;53.720;10.014;2023-09-12T05:33:30;19.70;99.90
38582;DHT22;24349;53.720;10.014;2023-09-12T05:35:56;19.80;99.90
38582;DHT22;24349;53.720;10.014;2023-09-12T05:38:22;19.70;99.90
38582;DHT22;24349;53.720;10.014;2023-09-12T05:40:48;19.70;99.90
38582;DHT22;24349;53.720;10.014;2023-09-12T05:43:16;19.70;99.90
38582;DHT22;24349;53.720;10.014;2023-09-12T05:45:42;19.70;99.90
38582;DHT22;24349;53.720;10.014;2023-09-12T05:48:07;19.70;99.90
38582;DHT22;24349;53.720;10.014;2023-09-12T05:50:36;19.70;99.90
38582;DHT22;24349;53.720;10.014;2023-09-12T05:53:02;19.90;99.90
38582;DHT22;24349;53.720;10.014;2023-09-12T05:55:27;19.90;99.90
38582;DHT22;24349;53.720;10.014;2023-09-12T05:57:53;20.00;99.90
38582;DHT22;24349;53.720;10.014;2023-09-12T06:00:19;20.00;99.90
38582;DHT22;24349;53.720;10.014;2023-09-12T06:02:49;20.00;99.90
38582;DHT22;24349;53.720;10.014;2023-09-12T06:05:15;19.90;99.90
38582;DHT22;24349;53.720;10.014;2023-09-12T06:07:41;19.90;99.90
38582;DHT22;24349;53.720;10.014;2023-09-12T06:10:08;20.00;99.90
38582;DHT22;24349;53.720;10.014;2023-09-12T06:12:34;20.10;99.90
38582;DHT22;24349;53.720;10.014;2023-09-12T06:15:02;20.20;99.90
38582;DHT22;24349;53.720;10.014;2023-09-12T06:17:27;20.30;99.90
38582;DHT22;24349;53.720;10.014;2023-09-12T06:19:54;20.30;99.90
38582;DHT22;24349;53.720;10.014;2023-09-12T06:22:20;20.30;99.90
38582;DHT22;24349;53.720;10.014;2023-09-12T06:24:46;20.40;99.90
38582;DHT22;24349;53.720;10.014;2023-09-12T06:27:11;20.50;99.90
38582;DHT22;24349;53.720;10.014;2023-09-12T06:29:44;20.50;99.90
38582;DHT22;24349;53.720;10.014;2023-09-12T06:32:11;20.40;99.90
38582;DHT22;24349;53.720;10.014;2023-09-12T06:34:36;20.40;99.90
38582;DHT22;24349;53.720;10.014;2023-09-12T06:37:02;20.30;99.90
38582;DHT22;24349;53.720;10.014;2023-09-12T06:39:27;20.10;99.90
38582;DHT22;24349;53.720;10.014;2023-09-12T06:41:53;20.00;99.90
38582;DHT22;24349;53.720;10.014;2023-09-12T06:44:19;20.00;99.90
38582;DHT22;24349;53.720;10.014;2023-09-12T06:46:44;20.10;99.90
38582;DHT22;24349;53.720;10.014;2023-09-12T06:49:10;20.20;99.90
38582;DHT22;24349;53.720;10.014;2023-09-12T06:51:35;20.30;99.90
38582;DHT22;24349;53.720;10.014;2023-09-12T06:54:01;20.30;99.90
38582;DHT22;24349;53.720;10.014;2023-09-12T06:56:26;20.30;99.90
38582;DHT22;24349;53.720;10.014;2023-09-12T06:58:52;20.30;99.90
38582;DHT22;24349;53.720;10.014;2023-09-12T07:01:20;20.40;99.90
38582;DHT22;24349;53.720;10.014;2023-09-12T07:03:46;20.20;99.90
38582;DHT22;24349;53.720;10.014;2023-09-12T07:06:12;20.30;99.90
38582;DHT22;24349;53.720;10.014;2023-09-12T07:08:37;20.30;99.90
38582;DHT22;24349;53.720;10.014;2023-09-12T07:11:04;20.30;99.90
38582;DHT22;24349;53.720;10.014;2023-09-12T07:13:33;20.30;99.90
38582;DHT22;24349;53.720;10.014;2023-09-12T07:15:59;20.20;99.90
38582;DHT22;24349;53.720;10.014;2023-09-12T07:18:24;20.20;99.90
38582;DHT22;24349;53.720;10.014;2023-09-12T07:21:01;20.10;99.90
38582;DHT22;24349;53.720;10.014;2023-09-12T07:23:27;20.10;99.90
38582;DHT22;24349;53.720;10.014;2023-09-12T07:25:54;20.00;99.90
38582;DHT22;24349;53.720;10.014;2023-09-12T07:28:25;20.10;99.90
38582;DHT22;24349;53.720;10.014;2023-09-12T07:30:51;20.20;99.90
38582;DHT22;24349;53.720;10.014;2023-09-12T07:33:17;20.20;99.90
38582;DHT22;24349;53.720;10.014;2023-09-12T07:35:42;20.10;99.90
38582;DHT22;24349;53.720;10.014;2023-09-12T07:38:08;20.20;99.90
38582;DHT22;24349;53.720;10.014;2023-09-12T07:40:34;20.30;99.90
38582;DHT22;24349;53.720;10.014;2023-09-12T07:42:59;20.30;99.90
38582;DHT22;24349;53.720;10.014;2023-09-12T07:45:25;20.30;99.90
38582;DHT22;24349;53.720;10.014;2023-09-12T07:47:50;20.30;99.90
38582;DHT22;24349;53.720;10.014;2023-09-12T07:50:16;20.10;99.90
38582;DHT22;24349;53.720;10.014;2023-09-12T07:52:42;20.20;99.90
38582;DHT22;24349;53.720;10.014;2023-09-12T07:55:08;20.30;99.90
38582;DHT22;24349;53.720;10.014;2023-09-12T07:57:34;20.40;99.90
38582;DHT22;24349;53.720;10.014;2023-09-12T08:00:00;20.60;99.90
38582;DHT22;24349;53.720;10.014;2023-09-12T08:02:26;20.80;99.90
38582;DHT22;24349;53.720;10.014;2023-09-12T08:04:52;20.70;99.90
38582;DHT22;24349;53.720;10.014;2023-09-12T08:07:19;20.60;99.90
38582;DHT22;24349;53.720;10.014;2023-09-12T08:10:03;20.70;99.90
38582;DHT22;24349;53.720;10.014;2023-09-12T08:12:29;20.80;99.90
38582;DHT22;24349;53.720;10.014;2023-09-12T08:14:55;20.80;99.90
38582;DHT22;24349;53.720;10.014;2023-09-12T08:17:22;20.90;99.90
38582;DHT22;24349;53.720;10.014;2023-09-12T08:19:48;20.90;99.90
38582;DHT22;24349;53.720;10.014;2023-09-12T08:22:14;21.00;99.90
38582;DHT22;24349;53.720;10.014;2023-09-12T08:24:40;21.30;99.90
38582;DHT22;24349;53.720;10.014;2023-09-12T08:27:06;21.70;99.90
38582;DHT22;24349;53.720;10.014;2023-09-12T08:29:32;22.10;99.90
38582;DHT22;24349;53.720;10.014;2023-09-12T08:31:59;22.30;99.90
38582;DHT22;24349;53.720;10.014;2023-09-12T08:34:25;22.30;99.90
38582;DHT22;24349;53.720;10.014;2023-09-12T08:36:50;22.60;99.90
38582;DHT22;24349;53.720;10.014;2023-09-12T08:39:23;22.50;99.90
38582;DHT22;24349;53.720;10.014;2023-09-12T08:41:50;22.70;99.90
38582;DHT22;24349;53.720;10.014;2023-09-12T08:44:15;22.80;99.90
38582;DHT22;24349;53.720;10.014;2023-09-12T08:46:42;23.00;99.90
38582;DHT22;24349;53.720;10.014;2023-09-12T08:49:08;23.20;99.90
38582;DHT22;24349;53.720;10.014;2023-09-12T08:51:36;23.10;99.90
38582;DHT22;24349;53.720;10.014;2023-09-12T08:54:02;23.20;99.90
38582;DHT22;24349;53.720;10.014;2023-09-12T08:56:32;23.60;99.90
38582;DHT22;24349;53.720;10.014;2023-09-12T08:58:58;23.30;99.90
38582;DHT22;24349;53.720;10.014;2023-09-12T09:01:25;23.10;99.90
38582;DHT22;24349;53.720;10.014;2023-09-12T09:03:54;22.90;99.90
38582;DHT22;24349;53.720;10.014;2023-09-12T09:06:22;22.60;99.90
38582;DHT22;24349;53.720;10.014;2023-09-12T09:08:48;22.90;99.90
38582;DHT22;24349;53.720;10.014;2023-09-12T09:11:14;23.30;99.90
38582;DHT22;24349;53.720;10.014;2023-09-12T09:13:40;23.70;99.90
38582;DHT22;24349;53.720;10.014;2023-09-12T09:18:55;25.20;99.90
38582;DHT22;24349;53.720;10.014;2023-09-12T09:21:23;24.70;99.90
38582;DHT22;24349;53.720;10.014;2023-09-12T09:23:54;24.60;99.90
38582;DHT22;24349;53.720;10.014;2023-09-12T09:26:20;23.80;99.90
38582;DHT22;24349;53.720;10.014;2023-09-12T09:28:46;23.90;99.90
38582;DHT22;24349;53.720;10.014;2023-09-12T09:31:25;24.00;99.90
38582;DHT22;24349;53.720;10.014;2023-09-12T09:33:51;24.40;99.90
38582;DHT22;24349;53.720;10.014;2023-09-12T09:36:17;24.80;99.90
38582;DHT22;24349;53.720;10.014;2023-09-12T09:38:43;25.20;99.90
38582;DHT22;24349;53.720;10.014;2023-09-12T09:41:09;25.30;99.90
38582;DHT22;24349;53.720;10.014;2023-09-12T09:43:35;25.70;99.90
38582;DHT22;24349;53.720;10.014;2023-09-12T09:46:01;26.30;99.90
38582;DHT22;24349;53.720;10.014;2023-09-12T09:48:28;25.80;99.90
38582;DHT22;24349;53.720;10.014;2023-09-12T09:51:01;24.90;99.90
38582;DHT22;24349;53.720;10.014;2023-09-12T09:53:28;24.80;99.90
38582;DHT22;24349;53.720;10.014;2023-09-12T09:56:14;24.80;99.90
38582;DHT22;24349;53.720;10.014;2023-09-12T09:58:49;24.60;99.90
38582;DHT22;24349;53.720;10.014;2023-09-12T10:01:29;24.50;99.90
38582;DHT22;24349;53.720;10.014;2023-09-12T10:03:59;24.60;99.90
38582;DHT22;24349;53.720;10.014;2023-09-12T10:06:25;24.60;99.90
38582;DHT22;24349;53.720;10.014;2023-09-12T10:08:52;24.50;99.90
38582;DHT22;24349;53.720;10.014;2023-09-12T10:11:20;24.30;99.90
38582;DHT22;24349;53.720;10.014;2023-09-12T10:13:57;24.20;99.90
38582;DHT22;24349;53.720;10.014;2023-09-12T10:16:35;24.00;99.90
38582;DHT22;24349;53.720;10.014;2023-09-12T10:19:15;24.20;99.90
38582;DHT22;24349;53.720;10.014;2023-09-12T10:22:03;24.30;99.90
38582;DHT22;24349;53.720;10.014;2023-09-12T10:24:33;24.30;99.90
38582;DHT22;24349;53.720;10.014;2023-09-12T10:27:00;24.30;99.90
38582;DHT22;24349;53.720;10.014;2023-09-12T10:29:27;24.40;99.90
38582;DHT22;24349;53.720;10.014;2023-09-12T10:31:53;24.30;99.90
38582;DHT22;24349;53.720;10.014;2023-09-12T10:34:20;24.40;99.90
38582;DHT22;24349;53.720;10.014;2023-09-12T10:36:46;23.80;99.90
38582;DHT22;24349;53.720;10.014;2023-09-12T10:39:14;23.90;99.90
38582;DHT22;24349;53.720;10.014;2023-09-12T10:41:41;23.70;99.90
38582;DHT22;24349;53.720;10.014;2023-09-12T10:44:10;23.30;99.90
38582;DHT22;24349;53.720;10.014;2023-09-12T10:46:39;23.40;99.90
38582;DHT22;24349;53.720;10.014;2023-09-12T10:49:10;23.20;99.90
38582;DHT22;24349;53.720;10.014;2023-09-12T10:51:47;23.10;99.90
38582;DHT22;24349;53.720;10.014;2023-09-12T10:54:15;23.20;99.90
38582;DHT22;24349;53.720;10.014;2023-09-12T10:56:41;23.40;99.90
38582;DHT22;24349;53.720;10.014;2023-09-12T11:01:43;23.40;99.90
38582;DHT22;24349;53.720;10.014;2023-09-12T11:06:44;23.50;99.90
38582;DHT22;24349;53.720;10.014;2023-09-12T11:09:23;23.40;99.90
38582;DHT22;24349;53.720;10.014;2023-09-12T11:11:55;23.40;99.90
38582;DHT22;24349;53.720;10.014;2023-09-12T11:14:21;23.50;99.90
38582;DHT22;24349;53.720;10.014;2023-09-12T11:19:52;23.40;99.90
38582;DHT22;24349;53.720;10.014;2023-09-12T11:22:22;23.40;99.90
38582;DHT22;24349;53.720;10.014;2023-09-12T11:24:47;23.30;99.90
38582;DHT22;24349;53.720;10.014;2023-09-12T11:27:13;23.20;99.90
38582;DHT22;24349;53.720;10.014;2023-09-12T11:29:40;22.90;99.90
38582;DHT22;24349;53.720;10.014;2023-09-12T11:32:06;22.80;99.90
38582;DHT22;24349;53.720;10.014;2023-09-12T11:34:42;22.60;99.90
38582;DHT22;24349;53.720;10.014;2023-09-12T11:37:08;22.70;99.90
38582;DHT22;24349;53.720;10.014;2023-09-12T11:39:35;22.70;99.90
38582;DHT22;24349;53.720;10.014;2023-09-12T11:42:03;22.60;99.90
38582;DHT22;24349;53.720;10.014;2023-09-12T11:44:30;22.50;99.90
38582;DHT22;24349;53.720;10.014;2023-09-12T11:46:59;22.40;99.90
38582;DHT22;24349;53.720;10.014;2023-09-12T11:49:37;22.40;99.90
38582;DHT22;24349;53.720;10.014;2023-09-12T11:52:03;22.30;99.90
38582;DHT22;24349;53.720;10.014;2023-09-12T11:54:30;22.30;99.90
38582;DHT22;24349;53.720;10.014;2023-09-12T11:56:57;22.30;99.90
38582;DHT22;24349;53.720;10.014;2023-09-12T11:59:25;22.30;99.90
38582;DHT22;24349;53.720;10.014;2023-09-12T12:01:52;22.40;99.90
38582;DHT22;24349;53.720;10.014;2023-09-12T12:04:19;22.40;99.90
38582;DHT22;24349;53.720;10.014;2023-09-12T12:06:45;22.40;99.90
38582;DHT22;24349;53.720;10.014;2023-09-12T12:09:11;22.20;99.90
38582;DHT22;24349;53.720;10.014;2023-09-12T12:11:37;22.20;99.90
38582;DHT22;24349;53.720;10.014;2023-09-12T12:14:15;22.20;99.90
38582;DHT22;24349;53.720;10.014;2023-09-12T12:16:42;22.20;99.90
38582;DHT22;24349;53.720;10.014;2023-09-12T12:19:15;22.30;99.90
38582;DHT22;24349;53.720;10.014;2023-09-12T12:21:41;22.30;99.90
38582;DHT22;24349;53.720;10.014;2023-09-12T12:24:10;22.20;99.90
38582;DHT22;24349;53.720;10.014;2023-09-12T12:26:36;22.20;99.90
38582;DHT22;24349;53.720;10.014;2023-09-12T12:29:02;22.10;99.90
38582;DHT22;24349;53.720;10.014;2023-09-12T12:31:28;22.20;99.90
38582;DHT22;24349;53.720;10.014;2023-09-12T12:33:54;22.20;99.90
38582;DHT22;24349;53.720;10.014;2023-09-12T12:36:21;22.20;99.90
38582;DHT22;24349;53.720;10.014;2023-09-12T12:38:48;22.10;99.90
38582;DHT22;24349;53.720;10.014;2023-09-12T12:41:28;22.20;99.90
38582;DHT22;24349;53.720;10.014;2023-09-12T12:43:57;22.20;99.90
38582;DHT22;24349;53.720;10.014;2023-09-12T12:46:26;22.20;99.90
38582;DHT22;24349;53.720;10.014;2023-09-12T12:48:51;22.30;99.90
38582;DHT22;24349;53.720;10.014;2023-09-12T12:51:22;22.30;99.90
38582;DHT22;24349;53.720;10.014;2023-09-12T12:53:50;22.40;99.90
38582;DHT22;24349;53.720;10.014;2023-09-12T12:56:26;22.70;99.90
38582;DHT22;24349;53.720;10.014;2023-09-12T12:58:56;22.80;99.90
38582;DHT22;24349;53.720;10.014;2023-09-12T13:01:28;22.70;99.90
38582;DHT22;24349;53.720;10.014;2023-09-12T13:03:54;22.60;99.90
38582;DHT22;24349;53.720;10.014;2023-09-12T13:06:22;22.80;99.90
38582;DHT22;24349;53.720;10.014;2023-09-12T13:08:49;23.30;99.90
38582;DHT22;24349;53.720;10.014;2023-09-12T13:11:16;23.50;99.90
38582;DHT22;24349;53.720;10.014;2023-09-12T13:13:42;24.10;99.90
38582;DHT22;24349;53.720;10.014;2023-09-12T13:16:12;24.60;99.90
38582;DHT22;24349;53.720;10.014;2023-09-12T13:18:39;25.20;99.90
38582;DHT22;24349;53.720;10.014;2023-09-12T13:21:05;25.90;99.90
38582;DHT22;24349;53.720;10.014;2023-09-12T13:23:33;26.70;99.90
38582;DHT22;24349;53.720;10.014;2023-09-12T13:25:59;27.30;99.90
38582;DHT22;24349;53.720;10.014;2023-09-12T13:28:24;27.50;99.90
38582;DHT22;24349;53.720;10.014;2023-09-12T13:30:53;29.20;99.90
38582;DHT22;24349;53.720;10.014;2023-09-12T13:33:19;28.40;99.90
38582;DHT22;24349;53.720;10.014;2023-09-12T13:35:46;27.60;99.90
38582;DHT22;24349;53.720;10.014;2023-09-12T13:38:12;26.90;99.90
38582;DHT22;24349;53.720;10.014;2023-09-12T13:40:38;26.20;99.90
38582;DHT22;24349;53.720;10.014;2023-09-12T13:43:05;25.70;99.90
38582;DHT22;24349;53.720;10.014;2023-09-12T13:45:30;25.70;99.90
38582;DHT22;24349;53.720;10.014;2023-09-12T13:47:57;26.10;99.90
38582;DHT22;24349;53.720;10.014;2023-09-12T13:50:23;26.20;99.90
38582;DHT22;24349;53.720;10.014;2023-09-12T13:52:49;26.00;99.90
38582;DHT22;24349;53.720;10.014;2023-09-12T13:55:15;25.40;99.90
38582;DHT22;24349;53.720;10.014;2023-09-12T13:57:41;25.20;99.90
38582;DHT22;24349;53.720;10.014;2023-09-12T14:00:08;24.30;99.90
38582;DHT22;24349;53.720;10.014;2023-09-12T14:02:33;24.00;99.90
38582;DHT22;24349;53.720;10.014;2023-09-12T14:04:59;24.40;99.90
38582;DHT22;24349;53.720;10.014;2023-09-12T14:07:26;24.30;99.90
38582;DHT22;24349;53.720;10.014;2023-09-12T14:09:51;24.30;99.90
38582;DHT22;24349;53.720;10.014;2023-09-12T14:12:23;24.20;99.90
38582;DHT22;24349;53.720;10.014;2023-09-12T14:14:49;23.70;99.90
38582;DHT22;24349;53.720;10.014;2023-09-12T14:17:15;23.50;99.90
38582;DHT22;24349;53.720;10.014;2023-09-12T14:19:41;23.50;99.90
38582;DHT22;24349;53.720;10.014;2023-09-12T14:22:06;23.70;99.90
38582;DHT22;24349;53.720;10.014;2023-09-12T14:24:32;23.90;99.90
38582;DHT22;24349;53.720;10.014;2023-09-12T14:26:57;24.10;99.90
38582;DHT22;24349;53.720;10.014;2023-09-12T14:29:23;24.10;99.90
38582;DHT22;24349;53.720;10.014;2023-09-12T14:31:52;23.90;99.90
38582;DHT22;24349;53.720;10.014;2023-09-12T14:34:23;23.90;99.90
38582;DHT22;24349;53.720;10.014;2023-09-12T14:36:52;23.80;99.90
38582;DHT22;24349;53.720;10.014;2023-09-12T14:39:18;23.80;99.90
38582;DHT22;24349;53.720;10.014;2023-09-12T14:41:44;23.90;99.90
38582;DHT22;24349;53.720;10.014;2023-09-12T14:44:12;23.90;99.90
38582;DHT22;24349;53.720;10.014;2023-09-12T14:46:38;23.70;99.90
38582;DHT22;24349;53.720;10.014;2023-09-12T14:49:04;23.60;99.90
38582;DHT22;24349;53.720;10.014;2023-09-12T14:51:29;23.60;99.90
38582;DHT22;24349;53.720;10.014;2023-09-12T14:53:55;23.60;99.90
38582;DHT22;24349;53.720;10.014;2023-09-12T14:56:20;23.90;99.90
38582;DHT22;24349;53.720;10.014;2023-09-12T14:58:46;24.00;99.90
38582;DHT22;24349;53.720;10.014;2023-09-12T15:01:12;24.20;99.90
38582;DHT22;24349;53.720;10.014;2023-09-12T15:03:37;24.20;99.90
38582;DHT22;24349;53.720;10.014;2023-09-12T15:06:06;24.20;99.90
38582;DHT22;24349;53.720;10.014;2023-09-12T15:08:32;24.10;99.90
38582;DHT22;24349;53.720;10.014;2023-09-12T15:11:01;24.20;99.90
38582;DHT22;24349;53.720;10.014;2023-09-12T15:13:27;24.30;99.90
38582;DHT22;24349;53.720;10.014;2023-09-12T15:15:53;24.40;99.90
38582;DHT22;24349;53.720;10.014;2023-09-12T15:18:18;24.50;99.90
38582;DHT22;24349;53.720;10.014;2023-09-12T15:20:44;24.60;99.90
38582;DHT22;24349;53.720;10.014;2023-09-12T15:23:09;24.70;99.90
38582;DHT22;24349;53.720;10.014;2023-09-12T15:25:35;24.70;99.90
38582;DHT22;24349;53.720;10.014;2023-09-12T15:28:02;24.80;99.90
38582;DHT22;24349;53.720;10.014;2023-09-12T15:30:28;24.70;99.90